sensor_id;sensor_type;location;lat;lon;timestamp;noise_LAeq;noise_LA_min;noise_LA_max;noise_LA01;noise_LA95
66454;Laerm;56832;52.514;4.662;2022-07-10T00:00:06;40.86;35.43;48.09;;
66454;Laerm;56832;52.514;4.662;2022-07-10T00:00:17;41.68;35.47;54.49;;
66454;Laerm;56832;52.514;4.662;2022-07-10T00:00:31;40.99;34.86;48.42;;
66454;Laerm;56832;52.514;4.662;2022-07-10T00:00:41;41.80;34.95;49.63;;
66454;Laerm;56832;52.514;4.662;2022-07-10T00:00:51;42.03;34.80;48.95;;
66454;Laerm;56832;52.514;4.662;2022-07-10T00:01:03;41.27;34.77;49.82;;
66454;Laerm;56832;52.514;4.662;2022-07-10T00:01:13;41.66;35.12;49.39;;
66454;Laerm;56832;52.514;4.662;2022-07-10T00:01:23;40.90;34.60;49.00;;
66454;Laerm;56832;52.514;4.662;2022-07-10T00:01:34;40.94;34.94;51.70;;
66454;Laerm;56832;52.514;4.662;2022-07-10T00:01:44;42.26;36.89;50.35;;
66454;Laerm;56832;52.514;4.662;2022-07-10T00:01:54;41.50;35.05;51.45;;
66454;Laerm;56832;52.514;4.662;2022-07-10T00:02:04;41.23;34.62;49.08;;
66454;Laerm;56832;52.514;4.662;2022-07-10T00:02:15;40.89;33.94;51.31;;
66454;Laerm;56832;52.514;4.662;2022-07-10T00:02:25;41.79;33.96;50.88;;
66454;Laerm;56832;52.514;4.662;2022-07-10T00:02:35;41.74;34.67;49.83;;
66454;Laerm;56832;52.514;4.662;2022-07-10T00:02:45;40.81;33.56;52.25;;
66454;Laerm;56832;52.514;4.662;2022-07-10T00:02:56;40.83;33.69;51.00;;
66454;Laerm;56832;52.514;4.662;2022-07-10T00:03:06;40.96;33.40;49.27;;
66454;Laerm;56832;52.514;4.662;2022-07-10T00:03:16;41.26;34.00;49.50;;
66454;Laerm;56832;52.514;4.662;2022-07-10T00:03:27;41.78;33.51;52.11;;
66454;Laerm;56832;52.514;4.662;2022-07-10T00:03:37;40.73;34.03;50.65;;
66454;Laerm;56832;52.514;4.662;2022-07-10T00:03:47;41.00;33.66;50.57;;
66454;Laerm;56832;52.514;4.662;2022-07-10T00:03:59;41.05;34.11;51.31;;
66454;Laerm;56832;52.514;4.662;2022-07-10T00:04:10;40.66;34.17;49.67;;
66454;Laerm;56832;52.514;4.662;2022-07-10T00:04:20;41.87;34.62;51.71;;
66454;Laerm;56832;52.514;4.662;2022-07-10T00:04:30;40.70;33.92;47.17;;
66454;Laerm;56832;52.514;4.662;2022-07-10T00:04:40;40.05;33.99;48.02;;
66454;Laerm;56832;52.514;4.662;2022-07-10T00:04:51;39.95;33.62;48.38;;
66454;Laerm;56832;52.514;4.662;2022-07-10T00:05:01;40.25;34.65;50.06;;
66454;Laerm;56832;52.514;4.662;2022-07-10T00:05:11;39.21;33.71;51.92;;
66454;Laerm;56832;52.514;4.662;2022-07-10T00:05:22;39.01;32.36;49.25;;
66454;Laerm;56832;52.514;4.662;2022-07-10T00:05:32;37.83;32.81;47.35;;
66454;Laerm;56832;52.514;4.662;2022-07-10T00:05:44;39.28;32.67;50.87;;
66454;Laerm;56832;52.514;4.662;2022-07-10T00:05:54;39.29;33.48;49.58;;
66454;Laerm;56832;52.514;4.662;2022-07-10T00:06:05;38.48;31.71;47.67;;
66454;Laerm;56832;52.514;4.662;2022-07-10T00:06:15;39.52;32.83;50.61;;
66454;Laerm;56832;52.514;4.662;2022-07-10T00:06:26;38.44;32.46;48.71;;
66454;Laerm;56832;52.514;4.662;2022-07-10T00:06:36;38.34;32.67;49.66;;
66454;Laerm;56832;52.514;4.662;2022-07-10T00:06:46;38.72;32.69;47.21;;
66454;Laerm;56832;52.514;4.662;2022-07-10T00:06:59;39.07;33.82;47.20;;
66454;Laerm;56832;52.514;4.662;2022-07-10T00:07:11;39.76;32.94;49.67;;
66454;Laerm;56832;52.514;4.662;2022-07-10T00:07:22;38.44;32.86;48.54;;
66454;Laerm;56832;52.514;4.662;2022-07-10T00:07:32;38.43;32.14;52.24;;
66454;Laerm;56832;52.514;4.662;2022-07-10T00:07:42;39.03;32.02;52.31;;
66454;Laerm;56832;52.514;4.662;2022-07-10T00:07:52;38.77;32.02;48.62;;
66454;Laerm;56832;52.514;4.662;2022-07-10T00:08:03;37.30;31.85;45.13;;
66454;Laerm;56832;52.514;4.662;2022-07-10T00:08:13;38.79;32.93;48.15;;
66454;Laerm;56832;52.514;4.662;2022-07-10T00:08:23;39.52;33.20;49.49;;
66454;Laerm;56832;52.514;4.662;2022-07-10T00:08:33;39.03;33.42;49.76;;
66454;Laerm;56832;52.514;4.662;2022-07-10T00:08:44;38.65;32.68;48.87;;
66454;Laerm;56832;52.514;4.662;2022-07-10T00:08:54;37.94;32.55;47.51;;
66454;Laerm;56832;52.514;4.662;2022-07-10T00:09:05;39.26;32.96;48.40;;
66454;Laerm;56832;52.514;4.662;2022-07-10T00:09:16;37.94;33.11;45.21;;
66454;Laerm;56832;52.514;4.662;2022-07-10T00:09:26;38.50;32.74;47.23;;
66454;Laerm;56832;52.514;4.662;2022-07-10T00:09:37;38.59;33.36;45.67;;
66454;Laerm;56832;52.514;4.662;2022-07-10T00:09:47;39.10;34.65;46.40;;
66454;Laerm;56832;52.514;4.662;2022-07-10T00:09:58;39.51;33.80;47.75;;
66454;Laerm;56832;52.514;4.662;2022-07-10T00:10:08;38.47;33.70;47.90;;
66454;Laerm;56832;52.514;4.662;2022-07-10T00:10:18;38.62;32.88;50.19;;
66454;Laerm;56832;52.514;4.662;2022-07-10T00:10:28;38.61;32.92;50.12;;
66454;Laerm;56832;52.514;4.662;2022-07-10T00:10:39;38.18;32.19;45.70;;
66454;Laerm;56832;52.514;4.662;2022-07-10T00:10:50;37.94;32.40;45.77;;
66454;Laerm;56832;52.514;4.662;2022-07-10T00:11:00;38.47;32.24;49.59;;
66454;Laerm;56832;52.514;4.662;2022-07-10T00:11:10;39.39;33.19;49.82;;
66454;Laerm;56832;52.514;4.662;2022-07-10T00:11:20;37.83;32.31;46.55;;
66454;Laerm;56832;52.514;4.662;2022-07-10T00:11:31;38.09;32.43;47.84;;
66454;Laerm;56832;52.514;4.662;2022-07-10T00:11:41;38.38;33.02;50.02;;
66454;Laerm;56832;52.514;4.662;2022-07-10T00:11:51;41.47;33.03;54.08;;
66454;Laerm;56832;52.514;4.662;2022-07-10T00:12:02;38.90;33.46;47.93;;
66454;Laerm;56832;52.514;4.662;2022-07-10T00:12:12;38.40;32.92;47.26;;
66454;Laerm;56832;52.514;4.662;2022-07-10T00:12:22;38.92;33.15;50.23;;
66454;Laerm;56832;52.514;4.662;2022-07-10T00:12:32;38.52;32.40;47.05;;
66454;Laerm;56832;52.514;4.662;2022-07-10T00:12:43;38.93;32.93;53.13;;
66454;Laerm;56832;52.514;4.662;2022-07-10T00:12:54;38.45;32.92;46.50;;
66454;Laerm;56832;52.514;4.662;2022-07-10T00:13:04;37.70;32.94;46.72;;
66454;Laerm;56832;52.514;4.662;2022-07-10T00:13:14;38.37;33.34;46.16;;
66454;Laerm;56832;52.514;4.662;2022-07-10T00:13:25;40.16;34.21;54.32;;
66454;Laerm;56832;52.514;4.662;2022-07-10T00:13:35;43.09;38.39;50.40;;
66454;Laerm;56832;52.514;4.662;2022-07-10T00:13:45;48.19;37.27;66.34;;
66454;Laerm;56832;52.514;4.662;2022-07-10T00:13:55;44.51;39.45;49.39;;
66454;Laerm;56832;52.514;4.662;2022-07-10T00:14:05;43.09;39.61;48.96;;
66454;Laerm;56832;52.514;4.662;2022-07-10T00:14:16;41.91;37.20;49.80;;
66454;Laerm;56832;52.514;4.662;2022-07-10T00:14:26;43.10;36.70;52.22;;
66454;Laerm;56832;52.514;4.662;2022-07-10T00:14:37;44.40;35.14;51.44;;
66454;Laerm;56832;52.514;4.662;2022-07-10T00:14:47;39.28;34.60;46.14;;
66454;Laerm;56832;52.514;4.662;2022-07-10T00:14:57;39.69;33.45;48.52;;
66454;Laerm;56832;52.514;4.662;2022-07-10T00:15:07;38.69;32.67;54.06;;
66454;Laerm;56832;52.514;4.662;2022-07-10T00:15:18;37.84;33.13;46.90;;
66454;Laerm;56832;52.514;4.662;2022-07-10T00:15:29;38.15;32.54;47.44;;
66454;Laerm;56832;52.514;4.662;2022-07-10T00:15:41;37.95;31.90;51.44;;
66454;Laerm;56832;52.514;4.662;2022-07-10T00:15:52;37.22;32.39;46.58;;
66454;Laerm;56832;52.514;4.662;2022-07-10T00:16:02;37.42;31.99;45.26;;
66454;Laerm;56832;52.514;4.662;2022-07-10T00:16:12;38.14;32.65;50.82;;
66454;Laerm;56832;52.514;4.662;2022-07-10T00:16:22;38.27;33.13;47.01;;
66454;Laerm;56832;52.514;4.662;2022-07-10T00:16:34;39.01;34.26;47.51;;
66454;Laerm;56832;52.514;4.662;2022-07-10T00:16:45;39.02;34.40;48.36;;
66454;Laerm;56832;52.514;4.662;2022-07-10T00:16:55;39.13;33.99;48.66;;
66454;Laerm;56832;52.514;4.662;2022-07-10T00:17:05;39.75;34.12;51.04;;
66454;Laerm;56832;52.514;4.662;2022-07-10T00:17:15;40.13;34.43;47.73;;
66454;Laerm;56832;52.514;4.662;2022-07-10T00:17:26;40.24;34.88;50.00;;
66454;Laerm;56832;52.514;4.662;2022-07-10T00:17:36;39.45;33.82;46.80;;
66454;Laerm;56832;52.514;4.662;2022-07-10T00:17:46;39.65;34.57;46.25;;
66454;Laerm;56832;52.514;4.662;2022-07-10T00:17:56;39.13;35.12;45.50;;
66454;Laerm;56832;52.514;4.662;2022-07-10T00:18:07;38.18;33.97;46.33;;
66454;Laerm;56832;52.514;4.662;2022-07-10T00:18:17;38.15;34.00;44.75;;
66454;Laerm;56832;52.514;4.662;2022-07-10T00:18:28;39.38;33.50;50.43;;
66454;Laerm;56832;52.514;4.662;2022-07-10T00:18:38;38.79;33.50;47.73;;
66454;Laerm;56832;52.514;4.662;2022-07-10T00:18:48;38.65;34.09;45.39;;
66454;Laerm;56832;52.514;4.662;2022-07-10T00:18:58;43.57;35.67;49.11;;
66454;Laerm;56832;52.514;4.662;2022-07-10T00:19:08;39.57;33.23;49.03;;
66454;Laerm;56832;52.514;4.662;2022-07-10T00:19:19;38.91;33.52;50.13;;
66454;Laerm;56832;52.514;4.662;2022-07-10T00:19:29;39.67;33.60;47.53;;
66454;Laerm;56832;52.514;4.662;2022-07-10T00:19:39;38.99;33.22;49.07;;
66454;Laerm;56832;52.514;4.662;2022-07-10T00:19:49;37.79;32.65;45.66;;
66454;Laerm;56832;52.514;4.662;2022-07-10T00:19:59;37.82;32.35;47.17;;
66454;Laerm;56832;52.514;4.662;2022-07-10T00:20:10;37.87;32.20;47.84;;
66454;Laerm;56832;52.514;4.662;2022-07-10T00:20:21;37.33;32.00;47.20;;
66454;Laerm;56832;52.514;4.662;2022-07-10T00:20:31;37.53;32.10;48.31;;
66454;Laerm;56832;52.514;4.662;2022-07-10T00:20:42;37.16;31.72;45.46;;
66454;Laerm;56832;52.514;4.662;2022-07-10T00:20:52;37.90;31.54;51.63;;
66454;Laerm;56832;52.514;4.662;2022-07-10T00:21:02;37.71;32.68;45.45;;
66454;Laerm;56832;52.514;4.662;2022-07-10T00:21:13;37.80;32.31;48.46;;
66454;Laerm;56832;52.514;4.662;2022-07-10T00:21:23;37.60;32.52;48.12;;
66454;Laerm;56832;52.514;4.662;2022-07-10T00:21:33;37.98;32.52;48.46;;
66454;Laerm;56832;52.514;4.662;2022-07-10T00:21:43;37.70;32.54;46.43;;
66454;Laerm;56832;52.514;4.662;2022-07-10T00:21:53;37.76;32.29;47.44;;
66454;Laerm;56832;52.514;4.662;2022-07-10T00:22:04;37.90;32.61;47.69;;
66454;Laerm;56832;52.514;4.662;2022-07-10T00:22:14;37.57;32.27;49.57;;
66454;Laerm;56832;52.514;4.662;2022-07-10T00:22:24;37.97;33.13;44.73;;
66454;Laerm;56832;52.514;4.662;2022-07-10T00:22:35;38.63;32.12;48.77;;
66454;Laerm;56832;52.514;4.662;2022-07-10T00:22:45;39.38;33.26;47.47;;
66454;Laerm;56832;52.514;4.662;2022-07-10T00:22:55;39.82;33.92;48.62;;
66454;Laerm;56832;52.514;4.662;2022-07-10T00:23:06;37.64;32.26;46.03;;
66454;Laerm;56832;52.514;4.662;2022-07-10T00:23:16;37.92;32.32;48.83;;
66454;Laerm;56832;52.514;4.662;2022-07-10T00:23:26;37.17;32.01;47.45;;
66454;Laerm;56832;52.514;4.662;2022-07-10T00:23:36;38.75;31.94;48.94;;
66454;Laerm;56832;52.514;4.662;2022-07-10T00:23:46;39.17;33.93;47.80;;
66454;Laerm;56832;52.514;4.662;2022-07-10T00:23:57;38.56;32.28;53.94;;
66454;Laerm;56832;52.514;4.662;2022-07-10T00:24:07;39.00;33.65;48.39;;
66454;Laerm;56832;52.514;4.662;2022-07-10T00:24:17;40.02;34.95;46.88;;
66454;Laerm;56832;52.514;4.662;2022-07-10T00:24:27;38.94;33.69;47.86;;
66454;Laerm;56832;52.514;4.662;2022-07-10T00:24:37;37.57;33.03;45.11;;
66454;Laerm;56832;52.514;4.662;2022-07-10T00:24:48;37.51;32.37;46.77;;
66454;Laerm;56832;52.514;4.662;2022-07-10T00:25:01;38.59;32.00;50.54;;
66454;Laerm;56832;52.514;4.662;2022-07-10T00:25:11;38.29;32.23;50.73;;
66454;Laerm;56832;52.514;4.662;2022-07-10T00:25:22;37.39;31.64;48.43;;
66454;Laerm;56832;52.514;4.662;2022-07-10T00:25:32;37.78;31.90;45.24;;
66454;Laerm;56832;52.514;4.662;2022-07-10T00:25:43;38.62;33.24;49.87;;
66454;Laerm;56832;52.514;4.662;2022-07-10T00:25:53;38.96;32.88;47.92;;
66454;Laerm;56832;52.514;4.662;2022-07-10T00:26:04;37.67;32.64;46.18;;
66454;Laerm;56832;52.514;4.662;2022-07-10T00:26:14;37.68;33.06;46.07;;
66454;Laerm;56832;52.514;4.662;2022-07-10T00:26:24;38.15;32.64;46.53;;
66454;Laerm;56832;52.514;4.662;2022-07-10T00:26:35;37.83;33.26;48.11;;
66454;Laerm;56832;52.514;4.662;2022-07-10T00:26:45;38.72;33.08;50.19;;
66454;Laerm;56832;52.514;4.662;2022-07-10T00:26:56;38.55;32.96;47.15;;
66454;Laerm;56832;52.514;4.662;2022-07-10T00:27:06;38.42;32.80;52.82;;
66454;Laerm;56832;52.514;4.662;2022-07-10T00:27:17;37.93;32.96;50.72;;
66454;Laerm;56832;52.514;4.662;2022-07-10T00:27:27;37.97;33.02;47.57;;
66454;Laerm;56832;52.514;4.662;2022-07-10T00:27:38;38.95;32.88;50.44;;
66454;Laerm;56832;52.514;4.662;2022-07-10T00:27:48;37.74;32.47;45.82;;
66454;Laerm;56832;52.514;4.662;2022-07-10T00:27:58;37.76;32.10;48.62;;
66454;Laerm;56832;52.514;4.662;2022-07-10T00:28:08;37.83;32.28;48.83;;
66454;Laerm;56832;52.514;4.662;2022-07-10T00:28:18;37.56;32.06;44.20;;
66454;Laerm;56832;52.514;4.662;2022-07-10T00:28:29;38.22;31.24;47.02;;
66454;Laerm;56832;52.514;4.662;2022-07-10T00:28:39;37.57;31.82;45.00;;
66454;Laerm;56832;52.514;4.662;2022-07-10T00:28:49;38.10;32.01;47.86;;
66454;Laerm;56832;52.514;4.662;2022-07-10T00:28:59;38.14;31.75;50.25;;
66454;Laerm;56832;52.514;4.662;2022-07-10T00:29:10;38.15;32.05;48.68;;
66454;Laerm;56832;52.514;4.662;2022-07-10T00:29:20;38.13;31.67;49.58;;
66454;Laerm;56832;52.514;4.662;2022-07-10T00:29:30;37.51;32.02;46.97;;
66454;Laerm;56832;52.514;4.662;2022-07-10T00:29:41;38.57;32.53;48.19;;
66454;Laerm;56832;52.514;4.662;2022-07-10T00:29:51;38.49;32.08;47.59;;
66454;Laerm;56832;52.514;4.662;2022-07-10T00:30:02;39.12;34.42;47.07;;
66454;Laerm;56832;52.514;4.662;2022-07-10T00:30:12;38.18;32.26;48.72;;
66454;Laerm;56832;52.514;4.662;2022-07-10T00:30:23;38.00;33.11;45.63;;
66454;Laerm;56832;52.514;4.662;2022-07-10T00:30:34;38.14;33.16;48.42;;
66454;Laerm;56832;52.514;4.662;2022-07-10T00:30:44;38.66;32.47;50.39;;
66454;Laerm;56832;52.514;4.662;2022-07-10T00:30:54;38.34;32.73;47.23;;
66454;Laerm;56832;52.514;4.662;2022-07-10T00:31:04;37.89;32.47;46.51;;
66454;Laerm;56832;52.514;4.662;2022-07-10T00:31:14;38.19;33.04;49.11;;
66454;Laerm;56832;52.514;4.662;2022-07-10T00:31:25;38.71;33.40;49.86;;
66454;Laerm;56832;52.514;4.662;2022-07-10T00:31:35;38.57;32.89;49.25;;
66454;Laerm;56832;52.514;4.662;2022-07-10T00:31:45;38.05;33.06;50.64;;
66454;Laerm;56832;52.514;4.662;2022-07-10T00:31:55;38.21;32.56;47.99;;
66454;Laerm;56832;52.514;4.662;2022-07-10T00:32:06;38.03;32.08;48.12;;
66454;Laerm;56832;52.514;4.662;2022-07-10T00:32:16;37.97;32.12;45.89;;
66454;Laerm;56832;52.514;4.662;2022-07-10T00:32:27;38.35;31.80;50.09;;
66454;Laerm;56832;52.514;4.662;2022-07-10T00:32:37;37.70;31.39;47.88;;
66454;Laerm;56832;52.514;4.662;2022-07-10T00:32:47;38.31;32.37;49.59;;
66454;Laerm;56832;52.514;4.662;2022-07-10T00:32:57;37.83;31.89;50.01;;
66454;Laerm;56832;52.514;4.662;2022-07-10T00:33:09;38.09;32.44;48.37;;
66454;Laerm;56832;52.514;4.662;2022-07-10T00:33:19;38.13;31.94;48.74;;
66454;Laerm;56832;52.514;4.662;2022-07-10T00:33:29;38.03;32.81;47.69;;
66454;Laerm;56832;52.514;4.662;2022-07-10T00:33:42;37.98;31.81;47.80;;
66454;Laerm;56832;52.514;4.662;2022-07-10T00:33:52;38.19;31.74;47.79;;
66454;Laerm;56832;52.514;4.662;2022-07-10T00:34:02;38.06;32.19;46.44;;
66454;Laerm;56832;52.514;4.662;2022-07-10T00:34:12;38.35;31.33;49.87;;
66454;Laerm;56832;52.514;4.662;2022-07-10T00:34:22;38.29;31.49;49.79;;
66454;Laerm;56832;52.514;4.662;2022-07-10T00:34:33;38.47;31.65;50.60;;
66454;Laerm;56832;52.514;4.662;2022-07-10T00:34:43;38.10;31.80;48.17;;
66454;Laerm;56832;52.514;4.662;2022-07-10T00:34:53;38.03;32.25;47.57;;
66454;Laerm;56832;52.514;4.662;2022-07-10T00:35:04;39.74;33.10;50.57;;
66454;Laerm;56832;52.514;4.662;2022-07-10T00:35:14;40.20;33.19;49.16;;
66454;Laerm;56832;52.514;4.662;2022-07-10T00:35:24;39.47;32.73;48.26;;
66454;Laerm;56832;52.514;4.662;2022-07-10T00:35:35;40.64;34.10;49.45;;
66454;Laerm;56832;52.514;4.662;2022-07-10T00:35:45;39.89;32.38;49.39;;
66454;Laerm;56832;52.514;4.662;2022-07-10T00:35:55;40.85;32.98;53.99;;
66454;Laerm;56832;52.514;4.662;2022-07-10T00:36:06;39.65;31.95;47.18;;
66454;Laerm;56832;52.514;4.662;2022-07-10T00:36:16;39.48;33.32;48.21;;
66454;Laerm;56832;52.514;4.662;2022-07-10T00:36:27;39.67;32.20;49.79;;
66454;Laerm;56832;52.514;4.662;2022-07-10T00:36:37;38.40;32.01;49.06;;
66454;Laerm;56832;52.514;4.662;2022-07-10T00:36:47;37.79;32.10;47.84;;
66454;Laerm;56832;52.514;4.662;2022-07-10T00:36:57;38.21;31.76;48.00;;
66454;Laerm;56832;52.514;4.662;2022-07-10T00:37:07;38.62;30.82;47.46;;
66454;Laerm;56832;52.514;4.662;2022-07-10T00:37:18;38.62;31.64;49.14;;
66454;Laerm;56832;52.514;4.662;2022-07-10T00:37:31;38.29;30.85;49.90;;
66454;Laerm;56832;52.514;4.662;2022-07-10T00:37:41;37.92;31.66;47.09;;
66454;Laerm;56832;52.514;4.662;2022-07-10T00:37:51;38.58;31.15;50.34;;
66454;Laerm;56832;52.514;4.662;2022-07-10T00:38:01;38.80;31.52;53.14;;
66454;Laerm;56832;52.514;4.662;2022-07-10T00:38:11;38.60;31.93;50.54;;
66454;Laerm;56832;52.514;4.662;2022-07-10T00:38:22;39.15;30.72;54.13;;
66454;Laerm;56832;52.514;4.662;2022-07-10T00:38:32;38.56;31.50;47.86;;
66454;Laerm;56832;52.514;4.662;2022-07-10T00:38:42;38.00;31.01;47.63;;
66454;Laerm;56832;52.514;4.662;2022-07-10T00:38:52;38.64;30.96;49.53;;
66454;Laerm;56832;52.514;4.662;2022-07-10T00:39:03;38.43;31.21;49.42;;
66454;Laerm;56832;52.514;4.662;2022-07-10T00:39:13;40.09;33.58;47.57;;
66454;Laerm;56832;52.514;4.662;2022-07-10T00:39:23;39.54;31.88;51.49;;
66454;Laerm;56832;52.514;4.662;2022-07-10T00:39:33;38.80;31.38;50.88;;
66454;Laerm;56832;52.514;4.662;2022-07-10T00:39:44;38.09;31.11;51.03;;
66454;Laerm;56832;52.514;4.662;2022-07-10T00:39:54;38.55;31.23;50.33;;
66454;Laerm;56832;52.514;4.662;2022-07-10T00:40:05;38.38;30.80;52.70;;
66454;Laerm;56832;52.514;4.662;2022-07-10T00:40:15;38.76;31.48;49.92;;
66454;Laerm;56832;52.514;4.662;2022-07-10T00:40:25;38.58;31.35;50.04;;
66454;Laerm;56832;52.514;4.662;2022-07-10T00:40:36;38.00;31.09;49.85;;
66454;Laerm;56832;52.514;4.662;2022-07-10T00:40:46;37.83;31.10;49.72;;
66454;Laerm;56832;52.514;4.662;2022-07-10T00:40:56;37.99;30.97;46.23;;
66454;Laerm;56832;52.514;4.662;2022-07-10T00:41:06;38.15;30.47;49.45;;
66454;Laerm;56832;52.514;4.662;2022-07-10T00:41:17;38.40;31.33;47.88;;
66454;Laerm;56832;52.514;4.662;2022-07-10T00:41:27;38.71;31.04;50.94;;
66454;Laerm;56832;52.514;4.662;2022-07-10T00:41:37;38.38;30.98;50.54;;
66454;Laerm;56832;52.514;4.662;2022-07-10T00:41:47;38.92;30.33;50.33;;
66454;Laerm;56832;52.514;4.662;2022-07-10T00:42:07;38.45;31.36;49.56;;
66454;Laerm;56832;52.514;4.662;2022-07-10T00:42:18;38.17;30.89;49.24;;
66454;Laerm;56832;52.514;4.662;2022-07-10T00:42:28;38.35;31.05;50.64;;
66454;Laerm;56832;52.514;4.662;2022-07-10T00:42:38;38.85;31.27;50.28;;
66454;Laerm;56832;52.514;4.662;2022-07-10T00:42:49;37.85;30.84;52.46;;
66454;Laerm;56832;52.514;4.662;2022-07-10T00:42:59;38.68;30.99;48.23;;
66454;Laerm;56832;52.514;4.662;2022-07-10T00:43:09;38.36;31.84;48.20;;
66454;Laerm;56832;52.514;4.662;2022-07-10T00:43:20;38.50;32.30;48.29;;
66454;Laerm;56832;52.514;4.662;2022-07-10T00:43:30;37.78;32.72;48.20;;
66454;Laerm;56832;52.514;4.662;2022-07-10T00:43:53;37.77;30.89;47.79;;
66454;Laerm;56832;52.514;4.662;2022-07-10T00:44:03;37.85;31.94;48.06;;
66454;Laerm;56832;52.514;4.662;2022-07-10T00:44:14;38.54;32.88;49.08;;
66454;Laerm;56832;52.514;4.662;2022-07-10T00:44:24;37.99;33.01;49.87;;
66454;Laerm;56832;52.514;4.662;2022-07-10T00:44:34;37.84;32.10;50.88;;
66454;Laerm;56832;52.514;4.662;2022-07-10T00:44:45;37.49;32.70;46.14;;
66454;Laerm;56832;52.514;4.662;2022-07-10T00:44:55;38.97;34.44;48.23;;
66454;Laerm;56832;52.514;4.662;2022-07-10T00:45:06;38.20;33.67;48.59;;
66454;Laerm;56832;52.514;4.662;2022-07-10T00:45:16;38.34;33.14;47.71;;
66454;Laerm;56832;52.514;4.662;2022-07-10T00:45:26;39.00;33.90;46.42;;
66454;Laerm;56832;52.514;4.662;2022-07-10T00:45:36;38.84;32.75;48.38;;
66454;Laerm;56832;52.514;4.662;2022-07-10T00:45:48;41.02;35.70;53.09;;
66454;Laerm;56832;52.514;4.662;2022-07-10T00:45:58;44.82;36.07;51.87;;
66454;Laerm;56832;52.514;4.662;2022-07-10T00:46:08;42.17;37.72;49.97;;
66454;Laerm;56832;52.514;4.662;2022-07-10T00:46:19;40.76;35.67;48.90;;
66454;Laerm;56832;52.514;4.662;2022-07-10T00:46:32;40.68;35.25;49.61;;
66454;Laerm;56832;52.514;4.662;2022-07-10T00:46:42;40.01;34.26;48.74;;
66454;Laerm;56832;52.514;4.662;2022-07-10T00:46:52;40.79;33.26;51.41;;
66454;Laerm;56832;52.514;4.662;2022-07-10T00:47:04;40.81;33.26;50.46;;
66454;Laerm;56832;52.514;4.662;2022-07-10T00:47:14;40.37;34.77;50.85;;
66454;Laerm;56832;52.514;4.662;2022-07-10T00:47:27;40.05;34.18;49.33;;
66454;Laerm;56832;52.514;4.662;2022-07-10T00:47:37;39.69;34.10;47.57;;
66454;Laerm;56832;52.514;4.662;2022-07-10T00:47:48;40.17;35.15;47.63;;
66454;Laerm;56832;52.514;4.662;2022-07-10T00:47:58;39.60;33.78;49.61;;
66454;Laerm;56832;52.514;4.662;2022-07-10T00:48:08;39.38;33.67;49.04;;
66454;Laerm;56832;52.514;4.662;2022-07-10T00:48:19;39.11;33.35;47.61;;
66454;Laerm;56832;52.514;4.662;2022-07-10T00:48:29;39.44;33.05;50.58;;
66454;Laerm;56832;52.514;4.662;2022-07-10T00:48:39;39.21;32.75;49.26;;
66454;Laerm;56832;52.514;4.662;2022-07-10T00:48:50;39.23;33.03;48.13;;
66454;Laerm;56832;52.514;4.662;2022-07-10T00:49:00;39.44;32.32;52.00;;
66454;Laerm;56832;52.514;4.662;2022-07-10T00:49:10;39.07;32.84;46.66;;
66454;Laerm;56832;52.514;4.662;2022-07-10T00:49:20;41.52;35.07;51.85;;
66454;Laerm;56832;52.514;4.662;2022-07-10T00:49:31;39.23;33.11;52.28;;
66454;Laerm;56832;52.514;4.662;2022-07-10T00:49:41;43.64;36.77;49.79;;
66454;Laerm;56832;52.514;4.662;2022-07-10T00:49:51;39.48;33.57;51.65;;
66454;Laerm;56832;52.514;4.662;2022-07-10T00:50:02;39.56;32.59;50.16;;
66454;Laerm;56832;52.514;4.662;2022-07-10T00:50:12;39.07;32.70;48.75;;
66454;Laerm;56832;52.514;4.662;2022-07-10T00:50:23;38.84;32.41;47.92;;
66454;Laerm;56832;52.514;4.662;2022-07-10T00:50:33;39.01;32.01;49.29;;
66454;Laerm;56832;52.514;4.662;2022-07-10T00:50:44;39.04;32.44;50.18;;
66454;Laerm;56832;52.514;4.662;2022-07-10T00:50:54;38.51;32.45;45.49;;
66454;Laerm;56832;52.514;4.662;2022-07-10T00:51:05;39.03;33.02;48.72;;
66454;Laerm;56832;52.514;4.662;2022-07-10T00:51:16;39.69;33.13;52.16;;
66454;Laerm;56832;52.514;4.662;2022-07-10T00:51:28;39.17;32.20;49.79;;
66454;Laerm;56832;52.514;4.662;2022-07-10T00:51:38;39.59;32.78;52.40;;
66454;Laerm;56832;52.514;4.662;2022-07-10T00:51:48;39.31;32.70;50.73;;
66454;Laerm;56832;52.514;4.662;2022-07-10T00:51:59;38.96;32.07;51.42;;
66454;Laerm;56832;52.514;4.662;2022-07-10T00:52:11;39.17;32.61;50.86;;
66454;Laerm;56832;52.514;4.662;2022-07-10T00:52:22;38.80;31.95;49.78;;
66454;Laerm;56832;52.514;4.662;2022-07-10T00:52:32;38.76;32.39;50.95;;
66454;Laerm;56832;52.514;4.662;2022-07-10T00:52:45;38.64;32.03;48.01;;
66454;Laerm;56832;52.514;4.662;2022-07-10T00:52:56;39.12;32.92;49.73;;
66454;Laerm;56832;52.514;4.662;2022-07-10T00:53:06;39.42;33.29;49.17;;
66454;Laerm;56832;52.514;4.662;2022-07-10T00:53:16;39.25;32.91;48.82;;
66454;Laerm;56832;52.514;4.662;2022-07-10T00:53:26;38.34;32.30;47.98;;
66454;Laerm;56832;52.514;4.662;2022-07-10T00:53:36;40.40;33.00;50.47;;
66454;Laerm;56832;52.514;4.662;2022-07-10T00:53:50;38.42;32.02;48.89;;
66454;Laerm;56832;52.514;4.662;2022-07-10T00:54:00;38.69;31.62;49.34;;
66454;Laerm;56832;52.514;4.662;2022-07-10T00:54:10;39.39;31.59;52.33;;
66454;Laerm;56832;52.514;4.662;2022-07-10T00:54:20;39.24;31.83;53.28;;
66454;Laerm;56832;52.514;4.662;2022-07-10T00:54:31;38.49;32.49;49.36;;
66454;Laerm;56832;52.514;4.662;2022-07-10T00:54:43;38.27;31.99;46.91;;
66454;Laerm;56832;52.514;4.662;2022-07-10T00:54:53;39.02;31.51;48.33;;
66454;Laerm;56832;52.514;4.662;2022-07-10T00:55:04;39.19;31.64;49.59;;
66454;Laerm;56832;52.514;4.662;2022-07-10T00:55:15;38.73;31.95;50.84;;
66454;Laerm;56832;52.514;4.662;2022-07-10T00:55:25;38.98;32.28;49.63;;
66454;Laerm;56832;52.514;4.662;2022-07-10T00:55:36;39.76;32.19;51.63;;
66454;Laerm;56832;52.514;4.662;2022-07-10T00:55:47;39.09;31.71;48.22;;
66454;Laerm;56832;52.514;4.662;2022-07-10T00:55:57;38.83;31.59;47.68;;
66454;Laerm;56832;52.514;4.662;2022-07-10T00:56:08;38.61;32.30;48.45;;
66454;Laerm;56832;52.514;4.662;2022-07-10T00:56:19;38.93;32.07;48.35;;
66454;Laerm;56832;52.514;4.662;2022-07-10T00:56:31;38.58;31.40;49.05;;
66454;Laerm;56832;52.514;4.662;2022-07-10T00:56:41;39.10;31.29;49.89;;
66454;Laerm;56832;52.514;4.662;2022-07-10T00:56:52;39.08;32.22;48.02;;
66454;Laerm;56832;52.514;4.662;2022-07-10T00:57:03;39.04;31.94;51.91;;
66454;Laerm;56832;52.514;4.662;2022-07-10T00:57:13;38.46;32.31;45.70;;
66454;Laerm;56832;52.514;4.662;2022-07-10T00:57:24;39.56;32.49;48.86;;
66454;Laerm;56832;52.514;4.662;2022-07-10T00:57:35;44.66;34.82;50.18;;
66454;Laerm;56832;52.514;4.662;2022-07-10T00:57:46;39.09;32.15;51.41;;
66454;Laerm;56832;52.514;4.662;2022-07-10T00:57:57;40.90;32.75;51.44;;
66454;Laerm;56832;52.514;4.662;2022-07-10T00:58:07;39.38;32.84;48.20;;
66454;Laerm;56832;52.514;4.662;2022-07-10T00:58:18;39.43;33.11;48.89;;
66454;Laerm;56832;52.514;4.662;2022-07-10T00:58:28;38.67;31.78;49.85;;
66454;Laerm;56832;52.514;4.662;2022-07-10T00:58:38;39.02;32.55;47.87;;
66454;Laerm;56832;52.514;4.662;2022-07-10T00:58:50;39.51;32.18;47.82;;
66454;Laerm;56832;52.514;4.662;2022-07-10T00:59:00;39.41;31.67;50.39;;